地図

経路データ

SID SEASON NUMBER BASIN SUBBASIN NAME ISO_TIME NATURE LAT LON WMO_WIND WMO_PRES WMO_AGENCY TRACK_TYPE DIST2LAND LANDFALL IFLAG USA_AGENCY USA_ATCF_ID USA_LAT USA_LON USA_RECORD USA_STATUS USA_WIND USA_PRES USA_SSHS USA_R34_NE USA_R34_SE USA_R34_SW USA_R34_NW USA_R50_NE USA_R50_SE USA_R50_SW USA_R50_NW USA_R64_NE USA_R64_SE USA_R64_SW USA_R64_NW USA_POCI USA_ROCI USA_RMW USA_EYE TOKYO_LAT TOKYO_LON TOKYO_GRADE TOKYO_WIND TOKYO_PRES TOKYO_R50_DIR TOKYO_R50_LONG TOKYO_R50_SHORT TOKYO_R30_DIR TOKYO_R30_LONG TOKYO_R30_SHORT TOKYO_LAND CMA_LAT CMA_LON CMA_CAT CMA_WIND CMA_PRES HKO_LAT HKO_LON HKO_CAT HKO_WIND HKO_PRES NEWDELHI_LAT NEWDELHI_LON NEWDELHI_GRADE NEWDELHI_WIND NEWDELHI_PRES NEWDELHI_CI NEWDELHI_DP NEWDELHI_POCI REUNION_LAT REUNION_LON REUNION_TYPE REUNION_WIND REUNION_PRES REUNION_TNUM REUNION_CI REUNION_RMW REUNION_R34_NE REUNION_R34_SE REUNION_R34_SW REUNION_R34_NW REUNION_R50_NE REUNION_R50_SE REUNION_R50_SW REUNION_R50_NW REUNION_R64_NE REUNION_R64_SE REUNION_R64_SW REUNION_R64_NW BOM_LAT BOM_LON BOM_TYPE BOM_WIND BOM_PRES BOM_TNUM BOM_CI BOM_RMW BOM_R34_NE BOM_R34_SE BOM_R34_SW BOM_R34_NW BOM_R50_NE BOM_R50_SE BOM_R50_SW BOM_R50_NW BOM_R64_NE BOM_R64_SE BOM_R64_SW BOM_R64_NW BOM_ROCI BOM_POCI BOM_EYE BOM_POS_METHOD BOM_PRES_METHOD NADI_LAT NADI_LON NADI_CAT NADI_WIND NADI_PRES WELLINGTON_LAT WELLINGTON_LON WELLINGTON_WIND WELLINGTON_PRES DS824_LAT DS824_LON DS824_STAGE DS824_WIND DS824_PRES TD9636_LAT TD9636_LON TD9636_STAGE TD9636_WIND TD9636_PRES TD9635_LAT TD9635_LON TD9635_WIND TD9635_PRES TD9635_ROCI NEUMANN_LAT NEUMANN_LON NEUMANN_CLASS NEUMANN_WIND NEUMANN_PRES MLC_LAT MLC_LON MLC_CLASS MLC_WIND MLC_PRES USA_GUST BOM_GUST BOM_GUST_PER REUNION_GUST REUNION_GUST_PER USA_SEAHGT USA_SEARAD_NE USA_SEARAD_SE USA_SEARAD_SW USA_SEARAD_NW STORM_SPEED STORM_DIR
1919288N11128 1919 44 WP MM NOT_NAMED 1919-10-14 22:00:00 NR 10.6000 127.800 main 223 148 __________O___ -1 10.6000 127.800 2 21 267
1919288N11128 1919 44 WP MM NOT_NAMED 1919-10-15 00:00:00 NR 10.5691 127.098 main 148 60 __________P___ -1 10.5691 127.098 2 21 268
1919288N11128 1919 44 WP MM NOT_NAMED 1919-10-15 03:00:00 NR 10.5329 126.040 main 60 0 __________P___ -1 10.5329 126.040 2 21 269
1919288N11128 1919 44 WP MM NOT_NAMED 1919-10-15 06:00:00 NR 10.5268 124.968 main 0 0 __________P___ -1 10.5268 124.968 2 21 271
1919288N11128 1919 44 WP MM NOT_NAMED 1919-10-15 09:00:00 NR 10.5708 123.872 main 0 0 __________P___ -1 10.5708 123.872 2 22 273
1919288N11128 1919 44 WP MM NOT_NAMED 1919-10-15 10:00:00 NR 10.6000 123.500 main 0 0 __________O___ -1 10.6000 123.500 2 22 276
1919288N11128 1919 44 WP MM NOT_NAMED 1919-10-15 12:00:00 NR 10.6822 122.746 main 10 0 __________P___ -1 10.6822 122.746 2 22 278
1919288N11128 1919 44 WP MM NOT_NAMED 1919-10-15 15:00:00 NR 10.8501 121.626 main 34 34 __________P___ -1 10.8501 121.626 2 22 280
1919288N11128 1919 44 WP MM NOT_NAMED 1919-10-15 18:00:00 NR 11.0455 120.576 main 109 15 __________P___ -1 11.0455 120.576 2 20 281
1919288N11128 1919 44 WP MM NOT_NAMED 1919-10-15 21:00:00 NR 11.2401 119.663 main 15 0 __________P___ -1 11.2401 119.663 2 18 282
1919288N11128 1919 44 WP MM NOT_NAMED 1919-10-15 22:00:00 NR 11.3000 119.400 main 10 10 __________O___ -1 11.3000 119.400 2 14 283
1919288N11128 1919 44 WP MM NOT_NAMED 1919-10-16 00:00:00 NR 11.3932 118.961 main 49 58 __________P___ -1 11.3932 118.961 2 12 283
1919288N11128 1919 44 WP MM NOT_NAMED 1919-10-16 03:00:00 NR 11.5218 118.447 main 114 114 __________P___ -1 11.5218 118.447 2 9 286
1919288N11128 1919 44 WP MM NOT_NAMED 1919-10-16 06:00:00 NR 11.6423 118.051 main 148 159 __________P___ -1 11.6423 118.051 2 8 288
1919288N11128 1919 44 WP MM NOT_NAMED 1919-10-16 09:00:00 NR 11.7603 117.712 main 197 197 __________P___ -1 11.7603 117.712 2 7 290
1919288N11128 1919 44 WP MM NOT_NAMED 1919-10-16 10:00:00 NR 11.8000 117.600 main 207 207 __________O___ -1 11.8000 117.600 3 8 289
1919288N11128 1919 44 WP MM NOT_NAMED 1919-10-16 12:00:00 NR 11.8884 117.322 main 241 241 __________P___ -1 11.8884 117.322 3 8 289
1919288N11128 1919 44 WP MM NOT_NAMED 1919-10-16 15:00:00 NR 12.0214 116.925 main 286 286 __________P___ -1 12.0214 116.925 3 8 289
1919288N11128 1919 44 WP MM NOT_NAMED 1919-10-16 18:00:00 NR 12.1490 116.552 main 321 335 __________P___ -1 12.1490 116.552 3 7 289
1919288N11128 1919 44 WP MM NOT_NAMED 1919-10-16 21:00:00 NR 12.2650 116.208 main 369 369 __________P___ -1 12.2650 116.208 3 7 289
1919288N11128 1919 44 WP MM NOT_NAMED 1919-10-16 22:00:00 NR 12.3000 116.100 main 380 380 __________O___ -1 12.3000 116.100 4 6 287
1919288N11128 1919 44 WP MM NOT_NAMED 1919-10-17 00:00:00 NR 12.3586 115.894 main 404 404 __________P___ -1 12.3586 115.894 4 6 286
1919288N11128 1919 44 WP MM NOT_NAMED 1919-10-17 03:00:00 NR 12.4340 115.610 main 431 431 __________P___ -1 12.4340 115.610 4 6 285
1919288N11128 1919 44 WP MM NOT_NAMED 1919-10-17 06:00:00 NR 12.5027 115.345 main 459 459 __________P___ -1 12.5027 115.345 4 5 285
1919288N11128 1919 44 WP MM NOT_NAMED 1919-10-17 09:00:00 NR 12.5740 115.087 main 481 481 __________P___ -1 12.5740 115.087 4 5 286
1919288N11128 1919 44 WP MM NOT_NAMED 1919-10-17 10:00:00 NR 12.6000 115.000 main 488 488 __________O___ -1 12.6000 115.000 4 6 288
1919288N11128 1919 44 WP MM NOT_NAMED 1919-10-17 12:00:00 NR 12.6636 114.809 main 510 510 __________P___ -1 12.6636 114.809 4 6 290
1919288N11128 1919 44 WP MM NOT_NAMED 1919-10-17 15:00:00 NR 12.7653 114.522 main 540 509 __________P___ -1 12.7653 114.522 4 6 290
1919288N11128 1919 44 WP MM NOT_NAMED 1919-10-17 18:00:00 NR 12.8692 114.243 main 509 488 __________P___ -1 12.8692 114.243 4 6 291
1919288N11128 1919 44 WP MM NOT_NAMED 1919-10-17 21:00:00 NR 12.9688 113.982 main 488 477 __________P___ -1 12.9688 113.982 4 5 291
1919288N11128 1919 44 WP MM NOT_NAMED 1919-10-17 22:00:00 NR 13.0000 113.900 main 477 455 __________O___ -1 13.0000 113.900 4 5 292
1919288N11128 1919 44 WP MM NOT_NAMED 1919-10-18 00:00:00 NR 13.0582 113.747 main 455 434 __________P___ -1 13.0582 113.747 4 5 292
1919288N11128 1919 44 WP MM NOT_NAMED 1919-10-18 03:00:00 NR 13.1394 113.536 main 434 413 __________P___ -1 13.1394 113.536 4 4 292
1919288N11128 1919 44 WP MM NOT_NAMED 1919-10-18 06:00:00 NR 13.2132 113.342 main 413 402 __________P___ -1 13.2132 113.342 4 4 291
1919288N11128 1919 44 WP MM NOT_NAMED 1919-10-18 09:00:00 NR 13.2796 113.160 main 403 392 __________P___ -1 13.2796 113.160 4 4 290
1919288N11128 1919 44 WP MM NOT_NAMED 1919-10-18 10:00:00 NR 13.3000 113.100 main 392 381 __________O___ -1 13.3000 113.100 4 4 289
1919288N11128 1919 44 WP MM NOT_NAMED 1919-10-18 12:00:00 NR 13.3390 112.980 main 381 361 __________P___ -1 13.3390 112.980 4 4 288
1919288N11128 1919 44 WP MM NOT_NAMED 1919-10-18 15:00:00 NR 13.3912 112.807 main 361 340 __________P___ -1 13.3912 112.807 4 4 287
1919288N11128 1919 44 WP MM NOT_NAMED 1919-10-18 18:00:00 NR 13.4387 112.636 main 340 331 __________P___ -1 13.4387 112.636 4 4 285
1919288N11128 1919 44 WP MM NOT_NAMED 1919-10-18 21:00:00 NR 13.4845 112.460 main 331 321 __________P___ -1 13.4845 112.460 4 4 285
1919288N11128 1919 44 WP MM NOT_NAMED 1919-10-18 22:00:00 NR 13.5000 112.400 main 321 310 __________O___ -1 13.5000 112.400 4 4 284
1919288N11128 1919 44 WP MM NOT_NAMED 1919-10-19 00:00:00 NR 13.5333 112.267 main 310 292 __________P___ -1 13.5333 112.267 4 4 284
1919288N11128 1919 44 WP MM NOT_NAMED 1919-10-19 03:00:00 NR 13.5834 112.061 main 292 271 __________P___ -1 13.5834 112.061 4 4 284
1919288N11128 1919 44 WP MM NOT_NAMED 1919-10-19 06:00:00 NR 13.6334 111.856 main 271 254 __________P___ -1 13.6334 111.856 4 4 284
1919288N11128 1919 44 WP MM NOT_NAMED 1919-10-19 09:00:00 NR 13.6833 111.661 main 254 244 __________P___ -1 13.6833 111.661 4 4 285
1919288N11128 1919 44 WP MM NOT_NAMED 1919-10-19 10:00:00 NR 13.7000 111.600 main 244 234 __________O___ -1 13.7000 111.600 4 4 287
1919288N11128 1919 44 WP MM NOT_NAMED 1919-10-19 12:00:00 NR 13.7359 111.486 main 234 216 __________P___ -1 13.7359 111.486 4 3 289
1919288N11128 1919 44 WP MM NOT_NAMED 1919-10-19 15:00:00 NR 13.7899 111.327 main 216 205 __________P___ -1 13.7899 111.327 4 3 290
1919288N11128 1919 44 WP MM NOT_NAMED 1919-10-19 18:00:00 NR 13.8412 111.181 main 205 183 __________P___ -1 13.8412 111.181 4 3 289
1919288N11128 1919 44 WP MM NOT_NAMED 1919-10-19 21:00:00 NR 13.8867 111.044 main 183 183 __________P___ -1 13.8867 111.044 4 3 288
1919288N11128 1919 44 WP MM NOT_NAMED 1919-10-19 22:00:00 NR 13.9000 111.000 main 183 172 __________O___ -1 13.9000 111.000 4 3 287
1919288N11128 1919 44 WP MM NOT_NAMED 1919-10-20 00:00:00 NR 13.9223 110.919 main 172 161 __________P___ -1 13.9223 110.919 4 2 284
1919288N11128 1919 44 WP MM NOT_NAMED 1919-10-20 03:00:00 NR 13.9495 110.803 main 161 151 __________P___ -1 13.9495 110.803 4 2 282
1919288N11128 1919 44 WP MM NOT_NAMED 1919-10-20 06:00:00 NR 13.9720 110.685 main 151 140 __________P___ -1 13.9720 110.685 4 2 280
1919288N11128 1919 44 WP MM NOT_NAMED 1919-10-20 09:00:00 NR 13.9929 110.550 main 140 130 __________P___ -1 13.9929 110.550 4 3 279
1919288N11128 1919 44 WP MM NOT_NAMED 1919-10-20 10:00:00 NR 14.0000 110.500 main 130 119 __________O___ -1 14.0000 110.500 4 3 278
1919288N11128 1919 44 WP MM NOT_NAMED 1919-10-20 12:00:00 NR 14.0151 110.389 main 119 97 __________P___ -1 14.0151 110.389 4 4 278
1919288N11128 1919 44 WP MM NOT_NAMED 1919-10-20 15:00:00 NR 14.0393 110.200 main 97 78 __________P___ -1 14.0393 110.200 4 4 277
1919288N11128 1919 44 WP MM NOT_NAMED 1919-10-20 18:00:00 NR 14.0649 109.992 main 78 58 __________P___ -1 14.0649 109.992 4 4 277
1919288N11128 1919 44 WP MM NOT_NAMED 1919-10-20 21:00:00 NR 14.0912 109.774 main 58 48 __________P___ -1 14.0912 109.774 4 4 277
1919288N11128 1919 44 WP MM NOT_NAMED 1919-10-20 22:00:00 NR 14.1000 109.700 main 48 __________O___ -1 14.1000 109.700 4 4 277

デジタル台風データ・検索

IBTrACS Databaseについて

本データベースは、米国NOAAが公開する1842年以降の世界の熱帯低気圧のベストトラックデータアーカイブInternational Best Track Archive for Climate Stewardship (IBTrACS)を、ウェブで閲覧しやすい形式に変換したものです。

最終更新日:2021-12-08